createdAt,value
2022-08-19T00:03:45.322Z,85.19
2022-08-19T00:10:48.798Z,85.33
2022-08-19T00:17:50.295Z,86.09
2022-08-19T00:24:51.734Z,87.38
2022-08-19T00:31:57.578Z,87.01
2022-08-19T00:38:59.471Z,86.83
2022-08-19T00:46:02.325Z,87.56
2022-08-19T00:53:04.957Z,89.10
2022-08-19T01:00:07.925Z,90.09
2022-08-19T01:07:09.412Z,90.45
2022-08-19T01:14:17.698Z,90.25
2022-08-19T01:21:21.422Z,90.85
2022-08-19T01:28:33.952Z,92.31
2022-08-19T01:35:41.621Z,92.63
2022-08-19T01:42:43.139Z,93.74
2022-08-19T01:49:44.606Z,93.74
2022-08-19T01:56:46.067Z,95.07
2022-08-19T02:12:17.212Z,97.07
2022-08-19T02:19:18.707Z,98.51
2022-08-19T02:26:20.212Z,97.93
2022-08-19T02:33:21.662Z,97.18
2022-08-19T02:40:23.142Z,96.73
2022-08-19T02:47:24.633Z,97.13
2022-08-19T02:54:26.479Z,96.92
2022-08-19T03:01:28.946Z,96.27
2022-08-19T03:08:30.987Z,96.77
2022-08-19T03:15:32.533Z,96.09
2022-08-19T03:22:33.986Z,95.47
2022-08-19T03:29:43.087Z,94.84
2022-08-19T03:36:45.828Z,95.08
2022-08-19T03:43:50.599Z,95.43
2022-08-19T03:50:52.079Z,94.86
2022-08-19T03:57:58.638Z,94.59
2022-08-19T04:05:00.649Z,94.71
2022-08-19T04:12:02.090Z,94.35
2022-08-19T04:19:04.164Z,94.17
2022-08-19T04:26:05.613Z,94.56
2022-08-19T04:33:14.139Z,94.60
2022-08-19T04:40:34.122Z,94.08
2022-08-19T04:47:49.345Z,94.50
2022-08-19T04:54:57.063Z,94.73
2022-08-19T05:01:58.525Z,94.30
2022-08-19T05:09:00.673Z,94.09
2022-08-19T05:16:02.342Z,93.82
2022-08-19T05:23:10.274Z,93.36
2022-08-19T05:30:33.321Z,92.51
2022-08-19T05:37:43.652Z,92.15
2022-08-19T05:44:45.381Z,91.89
2022-08-19T05:51:46.837Z,91.20
2022-08-19T05:58:48.385Z,89.68
2022-08-19T06:05:51.565Z,89.36
2022-08-19T06:12:54.096Z,89.06
2022-08-19T06:19:55.530Z,89.24
2022-08-19T06:27:00.803Z,87.39
2022-08-19T06:34:04.153Z,87.56
2022-08-19T06:41:07.723Z,87.44
2022-08-19T06:48:09.568Z,86.87
2022-08-19T06:55:13.240Z,86.01
2022-08-19T07:02:14.722Z,84.30
2022-08-19T07:09:18.547Z,84.76
2022-08-19T07:16:29.034Z,84.93
2022-08-19T07:23:31.180Z,85.39
2022-08-19T07:30:32.821Z,85.14
2022-08-19T07:37:37.920Z,85.08
2022-08-19T07:51:46.713Z,86.13
2022-08-19T07:58:48.928Z,85.43
2022-08-19T08:06:09.158Z,86.61
2022-08-19T08:13:10.999Z,86.88
2022-08-19T08:20:12.673Z,86.68
2022-08-19T08:27:14.145Z,84.91
2022-08-19T08:34:19.658Z,84.55
2022-08-19T08:41:23.927Z,83.82
2022-08-19T08:48:26.596Z,81.68
2022-08-19T08:55:28.721Z,79.35
2022-08-19T09:02:38.594Z,79.20
2022-08-19T09:09:44.308Z,78.91
2022-08-19T09:16:46.752Z,79.45
2022-08-19T09:23:48.234Z,79.78
2022-08-19T09:30:53.570Z,77.84
2022-08-19T09:37:57.658Z,77.86
2022-08-19T09:45:01.145Z,77.41
2022-08-19T09:52:08.532Z,75.75
2022-08-19T09:59:11.177Z,74.67
2022-08-19T10:06:14.982Z,73.80
2022-08-19T10:13:22.813Z,74.42
2022-08-19T10:20:24.287Z,75.18
2022-08-19T10:27:26.401Z,75.43
2022-08-19T10:34:28.600Z,75.76
2022-08-19T10:41:31.218Z,75.98
2022-08-19T10:48:33.111Z,75.37
2022-08-19T10:55:53.231Z,75.20
2022-08-19T11:02:54.710Z,74.58
2022-08-19T11:09:56.178Z,75.35
2022-08-19T11:16:57.666Z,75.31
2022-08-19T11:24:00.832Z,75.64
2022-08-19T11:31:04.245Z,77.07
2022-08-19T11:38:09.729Z,76.03
2022-08-19T11:45:11.567Z,77.14
2022-08-19T11:52:13.026Z,78.00
2022-08-19T11:59:15.014Z,75.01
2022-08-19T12:06:20.832Z,73.65
2022-08-19T12:13:22.300Z,73.76
2022-08-19T12:20:24.231Z,73.95
2022-08-19T12:27:35.689Z,73.64
2022-08-19T12:34:43.189Z,72.98
2022-08-19T12:41:50.576Z,72.81
2022-08-19T12:48:57.294Z,72.18
2022-08-19T12:55:59.061Z,71.86
2022-08-19T13:03:00.660Z,70.37
2022-08-19T13:10:02.241Z,67.01
2022-08-19T13:17:03.701Z,67.61
2022-08-19T13:24:05.208Z,68.18
2022-08-19T13:31:25.204Z,68.87
2022-08-19T13:38:26.747Z,68.05
2022-08-19T13:45:28.730Z,67.85
2022-08-19T13:52:30.172Z,68.10
2022-08-19T13:59:31.622Z,67.86
2022-08-19T14:06:33.299Z,67.78
2022-08-19T14:13:34.942Z,67.72
2022-08-19T14:20:36.479Z,68.42
2022-08-19T14:27:38.174Z,68.57
2022-08-19T14:34:39.682Z,68.48
2022-08-19T14:41:41.426Z,68.31
2022-08-19T14:48:42.986Z,67.96
2022-08-19T14:55:45.157Z,67.74
2022-08-19T15:02:46.638Z,66.45
2022-08-19T15:09:49.870Z,67.06
2022-08-19T15:16:53.616Z,67.66
2022-08-19T15:23:55.717Z,69.66
2022-08-19T15:30:57.161Z,69.66
2022-08-19T15:37:58.676Z,69.53
2022-08-19T15:45:00.500Z,70.21
2022-08-19T15:52:03.058Z,70.34
2022-08-19T15:59:23.360Z,70.93
2022-08-19T16:06:27.880Z,72.80
2022-08-19T16:13:29.333Z,74.03
2022-08-19T16:20:30.986Z,73.86
2022-08-19T16:27:32.631Z,74.02
2022-08-19T16:34:34.658Z,74.87
2022-08-19T16:41:37.425Z,74.69
2022-08-19T16:48:43.051Z,74.13
2022-08-19T16:55:45.600Z,74.22
2022-08-19T17:02:47.056Z,74.85
2022-08-19T17:09:48.763Z,74.80
2022-08-19T17:16:52.211Z,75.26
2022-08-19T17:23:55.228Z,75.78
2022-08-19T17:30:57.090Z,77.13
2022-08-19T17:37:58.886Z,77.52
2022-08-19T17:45:00.361Z,78.15
2022-08-19T17:52:02.054Z,79.34
2022-08-19T17:59:04.201Z,80.31
2022-08-19T18:06:09.429Z,79.70
2022-08-19T18:13:17.182Z,80.23
2022-08-19T18:20:19.490Z,80.52
2022-08-19T18:27:21.185Z,80.51
2022-08-19T18:34:23.635Z,80.64
2022-08-19T18:41:43.510Z,80.64
2022-08-19T18:49:03.567Z,80.86
2022-08-19T18:56:05.571Z,80.90
2022-08-19T19:03:07.193Z,81.33
2022-08-19T19:10:08.742Z,82.17
2022-08-19T19:17:11.253Z,82.71
2022-08-19T19:24:20.555Z,83.22
2022-08-19T19:31:25.575Z,83.75
2022-08-19T19:38:27.043Z,84.10
2022-08-19T19:45:30.392Z,84.54
2022-08-19T19:52:31.914Z,84.65
2022-08-19T19:59:33.398Z,85.05
2022-08-19T20:06:34.880Z,85.11
2022-08-19T20:13:39.509Z,85.15
2022-08-19T20:20:40.961Z,84.69
2022-08-19T20:27:42.865Z,84.79
2022-08-19T20:34:46.441Z,84.77
2022-08-19T20:41:48.711Z,84.61
2022-08-19T20:48:50.156Z,85.09
2022-08-19T20:55:51.981Z,85.24
2022-08-19T21:02:53.465Z,85.17
2022-08-19T21:09:55.082Z,84.86
2022-08-19T21:16:56.833Z,84.95
2022-08-19T21:23:58.309Z,85.16
2022-08-19T21:31:00.282Z,85.23
2022-08-19T21:38:02.061Z,85.86
2022-08-19T21:45:04.228Z,86.56
2022-08-19T21:52:05.872Z,87.20
2022-08-19T21:59:07.583Z,88.58
2022-08-19T22:06:09.375Z,87.23
2022-08-19T22:13:11.101Z,86.93
2022-08-19T22:20:13.674Z,86.80
2022-08-19T22:27:15.267Z,87.05
2022-08-19T22:34:16.705Z,87.50
2022-08-19T22:41:18.168Z,87.63
2022-08-19T22:48:20.307Z,88.16
2022-08-19T22:55:21.766Z,88.36
2022-08-19T23:02:24.424Z,88.35
2022-08-19T23:09:25.918Z,88.07
2022-08-19T23:16:32.810Z,88.10
2022-08-19T23:23:34.396Z,87.72
2022-08-19T23:30:43.546Z,87.92
2022-08-19T23:37:44.995Z,88.92
2022-08-19T23:44:51.582Z,89.01
2022-08-19T23:51:54.459Z,89.57
2022-08-19T23:58:55.956Z,89.73
